createdAt,value
2023-03-02T00:06:01.214Z,9.05
2023-03-02T00:12:04.854Z,8.68
2023-03-02T00:18:06.728Z,9.38
2023-03-02T00:24:08.749Z,10.20
2023-03-02T00:30:12.372Z,9.38
2023-03-02T00:36:19.080Z,11.13
2023-03-02T00:48:23.157Z,10.38
2023-03-02T00:54:24.986Z,9.85
2023-03-02T01:00:29.971Z,8.90
2023-03-02T01:06:46.160Z,9.65
2023-03-02T01:12:47.899Z,11.70
2023-03-02T01:18:49.678Z,9.75
2023-03-02T01:24:51.927Z,11.23
2023-03-02T01:30:54.406Z,11.93
2023-03-02T01:36:56.440Z,13.05
2023-03-02T01:43:02.500Z,12.48
2023-03-02T01:49:07.378Z,10.70
2023-03-02T01:55:24.759Z,12.55
2023-03-02T02:01:29.117Z,11.68
2023-03-02T02:07:31.240Z,9.20
2023-03-02T02:13:33.288Z,10.05
2023-03-02T02:20:11.990Z,9.50
2023-03-02T02:26:20.791Z,10.32
2023-03-02T02:32:26.889Z,9.68
2023-03-02T02:38:29.232Z,12.10
2023-03-02T02:44:31.931Z,9.95
2023-03-02T02:50:35.624Z,11.43
2023-03-02T02:56:39.722Z,10.23
2023-03-02T03:02:47.639Z,11.15
2023-03-02T03:08:54.163Z,10.53
2023-03-02T03:15:02.738Z,10.35
2023-03-02T03:21:05.136Z,9.68
2023-03-02T03:27:11.378Z,9.95
2023-03-02T03:33:16.241Z,8.77
2023-03-02T03:39:19.861Z,11.27
2023-03-02T03:45:25.463Z,11.15
2023-03-02T03:51:35.786Z,11.13
2023-03-02T03:57:42.753Z,10.38
2023-03-02T04:03:46.829Z,11.40
2023-03-02T04:09:49.999Z,10.07
2023-03-02T04:15:52.755Z,10.50
2023-03-02T04:21:55.467Z,11.57
2023-03-02T04:27:58.484Z,13.35
2023-03-02T04:34:04.320Z,11.77
2023-03-02T04:40:09.509Z,11.13
2023-03-02T04:46:22.160Z,10.52
2023-03-02T04:52:25.146Z,11.98
2023-03-02T04:58:26.939Z,11.82
2023-03-02T05:04:29.197Z,11.90
2023-03-02T05:10:30.986Z,11.98
2023-03-02T05:16:35.947Z,11.98
2023-03-02T05:22:38.276Z,11.38
2023-03-02T05:28:40.808Z,11.18
2023-03-02T05:34:42.538Z,11.90
2023-03-02T05:40:44.412Z,11.50
2023-03-02T05:46:46.448Z,11.90
2023-03-02T05:52:48.538Z,11.82
2023-03-02T05:58:50.344Z,12.25
2023-03-02T06:04:52.070Z,12.88
2023-03-02T06:10:57.084Z,12.23
2023-03-02T06:16:59.085Z,13.20
2023-03-02T06:23:00.897Z,12.07
2023-03-02T06:29:02.903Z,12.38
2023-03-02T06:35:06.301Z,13.07
2023-03-02T06:41:08.076Z,14.68
2023-03-02T06:47:09.833Z,15.10
2023-03-02T06:53:11.580Z,15.55
2023-03-02T06:59:13.384Z,16.58
2023-03-02T07:05:15.250Z,19.45
2023-03-02T07:11:17.117Z,16.65
2023-03-02T07:17:18.916Z,16.70
2023-03-02T07:23:20.726Z,17.17
2023-03-02T07:29:22.479Z,21.00
2023-03-02T07:35:24.264Z,20.08
2023-03-02T07:41:26.040Z,19.20
2023-03-02T07:47:27.823Z,17.13
2023-03-02T07:53:29.672Z,15.95
2023-03-02T07:59:31.403Z,17.20
2023-03-02T08:05:33.226Z,16.48
2023-03-02T08:11:35.325Z,14.32
2023-03-02T08:17:37.443Z,15.55
2023-03-02T08:23:39.325Z,17.80
2023-03-02T08:29:41.239Z,13.68
2023-03-02T08:35:43.025Z,11.88
2023-03-02T08:41:44.835Z,10.90
2023-03-02T08:47:46.612Z,9.80
2023-03-02T08:53:50.535Z,10.70
2023-03-02T08:59:52.678Z,10.52
2023-03-02T09:05:54.693Z,9.93
2023-03-02T09:11:56.481Z,10.18
2023-03-02T09:17:58.253Z,8.98
2023-03-02T09:24:00.064Z,9.45
2023-03-02T09:30:01.839Z,8.88
2023-03-02T09:36:08.671Z,9.57
2023-03-02T09:42:16.441Z,9.10
2023-03-02T09:48:28.929Z,9.68
2023-03-02T09:54:31.085Z,9.10
2023-03-02T10:00:39.368Z,8.82
2023-03-02T10:06:41.104Z,8.90
2023-03-02T10:12:53.263Z,9.18
2023-03-02T10:19:20.774Z,8.02
2023-03-02T10:25:36.417Z,7.88
2023-03-02T10:31:41.147Z,7.68
2023-03-02T10:37:42.956Z,8.98
2023-03-02T10:43:52.018Z,9.60
2023-03-02T10:49:55.711Z,8.70
2023-03-02T10:55:57.488Z,8.55
2023-03-02T11:02:08.599Z,8.93
2023-03-02T11:08:17.942Z,9.15
2023-03-02T11:14:19.754Z,8.82
2023-03-02T11:20:29.815Z,9.10
2023-03-02T11:26:38.614Z,8.60
2023-03-02T11:32:47.770Z,8.23
2023-03-02T11:38:55.886Z,8.98
2023-03-02T11:45:15.491Z,9.98
2023-03-02T11:51:26.291Z,10.55
2023-03-02T11:57:45.380Z,10.30
2023-03-02T12:03:47.381Z,10.32
2023-03-02T12:10:07.701Z,11.95
2023-03-02T12:16:38.962Z,12.55
2023-03-02T12:22:41.292Z,13.02
2023-03-02T12:28:43.032Z,13.93
2023-03-02T12:35:08.368Z,14.00
2023-03-02T12:41:22.163Z,14.15
2023-03-02T12:47:30.036Z,14.50
2023-03-02T12:53:32.375Z,14.75
2023-03-02T12:59:34.406Z,14.75
2023-03-02T13:05:36.467Z,14.45
2023-03-02T13:11:39.028Z,16.90
2023-03-02T13:17:41.112Z,15.48
2023-03-02T13:23:51.655Z,15.68
2023-03-02T13:29:55.622Z,15.10
2023-03-02T13:35:57.924Z,15.55
2023-03-02T13:42:01.939Z,16.02
2023-03-02T13:48:17.464Z,14.48
2023-03-02T13:54:34.898Z,14.43
2023-03-02T14:00:38.846Z,15.15
2023-03-02T14:06:40.619Z,16.10
2023-03-02T14:12:47.855Z,15.88
2023-03-02T14:18:50.994Z,19.10
2023-03-02T14:24:53.656Z,19.27
2023-03-02T14:30:57.610Z,19.48
2023-03-02T14:37:02.958Z,18.05
2023-03-02T14:43:05.501Z,16.75
2023-03-02T14:49:07.217Z,22.55
2023-03-02T14:55:14.319Z,19.30
2023-03-02T15:01:17.544Z,18.47
2023-03-02T15:07:21.299Z,21.17
2023-03-02T15:13:23.028Z,31.88
2023-03-02T15:19:24.855Z,34.30
2023-03-02T15:25:27.527Z,22.58
2023-03-02T15:31:29.574Z,19.92
2023-03-02T15:37:31.385Z,21.42
2023-03-02T15:43:33.381Z,24.08
2023-03-02T15:49:35.385Z,25.50
2023-03-02T15:55:40.667Z,27.65
2023-03-02T16:01:42.449Z,29.80
2023-03-02T16:07:44.622Z,29.63
2023-03-02T16:13:46.400Z,30.00
2023-03-02T16:19:48.190Z,30.88
2023-03-02T16:25:50.260Z,32.00
2023-03-02T16:31:52.647Z,34.47
2023-03-02T16:37:54.855Z,37.47
2023-03-02T16:43:58.564Z,39.40
2023-03-02T16:50:00.329Z,40.78
2023-03-02T16:56:02.467Z,44.05
2023-03-02T17:02:04.302Z,45.40
2023-03-02T17:08:10.084Z,46.70
2023-03-02T17:14:11.963Z,48.72
2023-03-02T17:20:14.445Z,48.10
2023-03-02T17:26:17.304Z,49.05
2023-03-02T17:32:19.435Z,50.60
2023-03-02T17:38:21.607Z,49.58
2023-03-02T17:44:23.474Z,49.92
2023-03-02T17:50:26.374Z,50.60
2023-03-02T17:56:28.621Z,52.65
2023-03-02T18:02:30.347Z,51.25
2023-03-02T18:08:33.186Z,53.80
2023-03-02T18:14:36.136Z,53.70
2023-03-02T18:20:38.184Z,48.40
2023-03-02T18:26:40.017Z,57.78
2023-03-02T18:32:41.832Z,50.40
2023-03-02T18:38:43.746Z,53.83
2023-03-02T18:44:45.591Z,54.33
2023-03-02T18:50:48.639Z,50.97
2023-03-02T18:56:50.462Z,51.20
2023-03-02T19:02:52.343Z,57.67
2023-03-02T19:08:54.723Z,55.03
2023-03-02T19:14:56.500Z,47.33
2023-03-02T19:20:58.393Z,46.67
2023-03-02T19:27:00.516Z,44.03
2023-03-02T19:33:03.586Z,42.55
2023-03-02T19:39:05.520Z,44.65
2023-03-02T19:45:14.484Z,45.65
2023-03-02T19:51:16.809Z,45.10
2023-03-02T19:57:18.993Z,41.58
2023-03-02T20:03:20.786Z,38.75
2023-03-02T20:09:24.178Z,39.05
2023-03-02T20:15:28.015Z,41.30
2023-03-02T20:21:32.538Z,42.90
2023-03-02T20:27:34.369Z,39.63
2023-03-02T20:33:41.078Z,40.22
2023-03-02T20:39:45.388Z,38.83
2023-03-02T20:45:47.672Z,39.80
2023-03-02T20:51:54.580Z,39.60
2023-03-02T20:57:57.156Z,38.35
2023-03-02T21:04:01.555Z,34.88
2023-03-02T21:10:13.309Z,42.13
2023-03-02T21:16:21.672Z,37.53
2023-03-02T21:22:23.453Z,35.20
2023-03-02T21:28:25.242Z,37.45
2023-03-02T21:34:26.988Z,39.72
2023-03-02T21:40:32.316Z,39.75
2023-03-02T21:46:35.834Z,35.85
2023-03-02T21:52:39.921Z,42.22
2023-03-02T21:58:41.932Z,36.75
2023-03-02T22:04:43.710Z,32.95
2023-03-02T22:10:48.552Z,32.53
2023-03-02T22:16:52.055Z,30.92
2023-03-02T22:22:54.558Z,31.27
2023-03-02T22:29:06.340Z,31.55
2023-03-02T22:35:19.774Z,34.60
2023-03-02T22:41:21.621Z,36.47
2023-03-02T22:47:25.067Z,32.95
2023-03-02T22:53:32.337Z,31.83
2023-03-02T22:59:37.749Z,31.48
2023-03-02T23:05:39.640Z,26.40
2023-03-02T23:11:42.130Z,25.35
2023-03-02T23:17:46.315Z,25.85
2023-03-02T23:23:49.705Z,26.48
2023-03-02T23:29:52.175Z,26.15
2023-03-02T23:35:54.011Z,25.48
2023-03-02T23:41:56.099Z,23.95
2023-03-02T23:47:59.084Z,22.73
2023-03-02T23:54:02.398Z,23.70
